createdAt,value
2018-08-24T00:00:21.441Z,5.97
2018-08-24T00:02:25.796Z,5.10
2018-08-24T00:04:29.804Z,4.73
2018-08-24T00:06:33.780Z,5.30
2018-08-24T00:08:37.914Z,8.33
2018-08-24T00:10:41.935Z,6.37
2018-08-24T00:12:46.091Z,7.23
2018-08-24T00:14:50.119Z,6.30
2018-08-24T00:16:54.208Z,6.20
2018-08-24T00:18:58.411Z,7.97
2018-08-24T00:21:02.385Z,6.78
2018-08-24T00:23:06.867Z,7.37
2018-08-24T00:25:11.185Z,7.40
2018-08-24T00:27:15.219Z,7.22
2018-08-24T00:29:19.230Z,6.80
2018-08-24T00:31:23.441Z,11.37
2018-08-24T00:33:27.643Z,6.10
2018-08-24T00:35:31.721Z,9.13
2018-08-24T00:37:35.787Z,6.63
2018-08-24T00:39:42.305Z,6.13
2018-08-24T00:41:46.623Z,7.47
2018-08-24T00:43:50.863Z,8.10
2018-08-24T00:45:55.196Z,8.53
2018-08-24T00:47:59.072Z,8.93
2018-08-24T00:50:03.276Z,8.23
2018-08-24T00:52:07.335Z,8.83
2018-08-24T00:54:11.544Z,9.10
2018-08-24T00:56:15.595Z,9.50
2018-08-24T00:58:19.604Z,9.00
2018-08-24T01:00:27.861Z,7.80
2018-08-24T01:02:32.082Z,6.70
2018-08-24T01:04:37.000Z,7.07
2018-08-24T01:06:41.248Z,9.33
2018-08-24T01:08:45.375Z,9.80
2018-08-24T01:10:49.765Z,7.50
2018-08-24T01:12:54.149Z,10.07
2018-08-24T01:14:58.097Z,10.60
2018-08-24T01:17:07.278Z,9.03
2018-08-24T01:19:11.635Z,9.20
2018-08-24T01:21:15.571Z,10.60
2018-08-24T01:23:22.070Z,9.97
2018-08-24T01:25:26.033Z,10.40
2018-08-24T01:27:31.146Z,11.90
2018-08-24T01:29:38.260Z,11.20
2018-08-24T01:31:42.268Z,13.60
2018-08-24T01:33:46.421Z,12.00
2018-08-24T01:35:50.252Z,11.40
2018-08-24T01:37:54.239Z,12.13
2018-08-24T01:39:58.277Z,10.47
2018-08-24T01:42:02.349Z,11.37
2018-08-24T01:44:06.286Z,9.90
2018-08-24T01:46:12.341Z,11.30
2018-08-24T01:48:16.271Z,11.70
2018-08-24T01:50:20.269Z,11.93
2018-08-24T01:52:24.287Z,10.53
2018-08-24T01:54:28.271Z,11.73
2018-08-24T01:56:31.800Z,11.10
2018-08-24T01:58:35.664Z,13.60
2018-08-24T02:00:40.049Z,11.50
2018-08-24T02:02:45.963Z,18.00
2018-08-24T02:04:50.086Z,13.40
2018-08-24T02:06:54.099Z,12.37
2018-08-24T02:08:58.068Z,18.02
2018-08-24T02:11:02.063Z,12.63
2018-08-24T02:13:11.440Z,13.53
2018-08-24T02:15:15.484Z,14.20
2018-08-24T02:17:24.858Z,14.15
2018-08-24T02:19:34.071Z,13.67
2018-08-24T02:21:43.221Z,16.67
2018-08-24T02:23:47.250Z,13.90
2018-08-24T02:25:51.256Z,17.67
2018-08-24T02:27:55.714Z,19.03
2018-08-24T02:29:59.625Z,14.50
2018-08-24T02:32:03.990Z,17.73
2018-08-24T02:34:08.120Z,16.83
2018-08-24T02:36:12.197Z,20.13
2018-08-24T02:38:16.313Z,13.03
2018-08-24T02:40:20.595Z,16.80
2018-08-24T02:42:24.618Z,16.63
2018-08-24T02:44:28.521Z,19.53
2018-08-24T02:46:32.559Z,16.33
2018-08-24T02:48:36.545Z,17.77
2018-08-24T02:50:40.748Z,19.27
2018-08-24T02:52:44.851Z,13.17
2018-08-24T02:54:48.907Z,19.53
2018-08-24T02:56:52.823Z,13.57
2018-08-24T02:58:57.065Z,16.13
2018-08-24T03:01:01.439Z,14.47
2018-08-24T03:03:05.907Z,13.93
2018-08-24T03:05:09.953Z,15.17
2018-08-24T03:07:14.052Z,14.10
2018-08-24T03:09:17.852Z,9.90
2018-08-24T03:11:21.765Z,14.97
2018-08-24T03:13:25.943Z,12.30
2018-08-24T03:15:30.026Z,13.43
2018-08-24T03:17:39.189Z,12.27
2018-08-24T03:19:43.192Z,11.40
2018-08-24T03:21:47.242Z,9.07
2018-08-24T03:23:51.175Z,13.23
2018-08-24T03:25:55.215Z,14.93
2018-08-24T03:27:59.063Z,14.90
2018-08-24T03:30:03.127Z,18.80
2018-08-24T03:32:07.122Z,14.20
2018-08-24T03:34:11.181Z,15.97
2018-08-24T03:36:15.149Z,12.90
2018-08-24T03:38:19.114Z,12.57
2018-08-24T03:40:23.134Z,13.03
2018-08-24T03:42:27.179Z,12.03
2018-08-24T03:44:31.658Z,12.10
2018-08-24T03:46:35.648Z,13.00
2018-08-24T03:48:39.556Z,15.53
2018-08-24T03:50:43.523Z,12.80
2018-08-24T03:52:47.687Z,12.30
2018-08-24T03:54:51.901Z,14.97
2018-08-24T03:56:58.130Z,13.20
2018-08-24T03:59:02.232Z,12.20
2018-08-24T04:01:06.271Z,10.83
2018-08-24T04:03:10.365Z,9.17
2018-08-24T04:05:14.691Z,12.60
2018-08-24T04:07:18.627Z,10.23
2018-08-24T04:09:22.670Z,11.47
2018-08-24T04:11:26.750Z,11.45
2018-08-24T04:13:30.850Z,11.80
2018-08-24T04:15:34.880Z,11.47
2018-08-24T04:17:42.052Z,10.77
2018-08-24T04:19:46.120Z,18.13
2018-08-24T04:21:50.188Z,14.23
2018-08-24T04:23:54.184Z,12.73
2018-08-24T04:25:58.321Z,12.87
2018-08-24T04:28:02.261Z,12.67
2018-08-24T04:30:06.653Z,20.30
2018-08-24T04:32:10.638Z,11.60
2018-08-24T04:34:14.706Z,13.67
2018-08-24T04:36:18.883Z,14.20
2018-08-24T04:38:23.070Z,17.57
2018-08-24T04:40:27.169Z,18.10
2018-08-24T04:42:31.084Z,15.50
2018-08-24T04:44:35.114Z,16.32
2018-08-24T04:46:39.197Z,15.33
2018-08-24T04:48:43.283Z,10.97
2018-08-24T04:50:47.909Z,12.20
2018-08-24T04:52:51.944Z,11.40
2018-08-24T04:54:56.068Z,11.63
2018-08-24T04:57:00.179Z,12.70
2018-08-24T04:59:04.371Z,14.70
2018-08-24T05:01:08.426Z,16.70
2018-08-24T05:03:12.372Z,13.20
2018-08-24T05:05:16.496Z,17.77
2018-08-24T05:07:20.598Z,14.27
2018-08-24T05:09:24.612Z,20.77
2018-08-24T05:11:28.507Z,16.87
2018-08-24T05:13:32.498Z,16.70
2018-08-24T05:15:36.522Z,15.13
2018-08-24T05:17:40.372Z,14.27
2018-08-24T05:19:44.407Z,17.33
2018-08-24T05:21:48.574Z,23.00
2018-08-24T05:23:52.527Z,17.60
2018-08-24T05:25:56.563Z,18.93
2018-08-24T05:28:00.613Z,17.70
2018-08-24T05:30:04.706Z,14.30
2018-08-24T05:32:08.651Z,17.43
2018-08-24T05:34:12.611Z,20.43
2018-08-24T05:36:16.808Z,22.07
2018-08-24T05:38:20.882Z,14.90
2018-08-24T05:40:24.923Z,14.30
2018-08-24T05:42:28.886Z,17.50
2018-08-24T05:44:33.082Z,16.60
2018-08-24T05:46:37.200Z,18.43
2018-08-24T05:48:41.236Z,21.43
2018-08-24T05:50:45.435Z,14.73
2018-08-24T05:52:49.368Z,20.53
2018-08-24T05:54:53.608Z,15.07
2018-08-24T05:56:58.131Z,25.53
2018-08-24T05:59:02.235Z,22.63
2018-08-24T06:01:08.346Z,16.37
2018-08-24T06:03:12.455Z,17.73
2018-08-24T06:05:16.507Z,19.17
2018-08-24T06:07:20.528Z,22.50
2018-08-24T06:09:24.609Z,17.97
2018-08-24T06:11:28.684Z,19.63
2018-08-24T06:13:32.697Z,15.17
2018-08-24T06:15:36.711Z,19.43
2018-08-24T06:17:45.872Z,18.13
2018-08-24T06:19:49.940Z,16.13
2018-08-24T06:21:54.190Z,16.33
2018-08-24T06:23:58.390Z,16.77
2018-08-24T06:26:02.394Z,23.13
2018-08-24T06:28:06.479Z,24.73
2018-08-24T06:30:10.883Z,23.77
2018-08-24T06:32:14.977Z,22.00
2018-08-24T06:34:19.492Z,19.80
2018-08-24T06:36:23.567Z,19.20
2018-08-24T06:38:27.574Z,15.83
2018-08-24T06:40:31.616Z,20.23
2018-08-24T06:42:35.951Z,19.97
2018-08-24T06:44:39.843Z,20.90
2018-08-24T06:46:43.837Z,15.57
2018-08-24T06:48:47.872Z,19.60
2018-08-24T06:50:51.952Z,25.60
2018-08-24T06:52:55.963Z,15.77
2018-08-24T06:55:00.438Z,19.93
2018-08-24T06:57:04.807Z,15.93
2018-08-24T06:59:08.890Z,18.23
2018-08-24T07:01:12.843Z,25.53
2018-08-24T07:03:16.899Z,16.20
2018-08-24T07:05:21.113Z,15.47
2018-08-24T07:07:25.031Z,16.90
2018-08-24T07:09:28.992Z,16.87
2018-08-24T07:11:33.035Z,21.00
2018-08-24T07:13:37.134Z,14.80
2018-08-24T07:15:41.190Z,22.10
2018-08-24T07:17:50.316Z,20.03
2018-08-24T07:19:54.326Z,28.60
2018-08-24T07:21:58.646Z,14.73
2018-08-24T07:24:02.771Z,9.40
2018-08-24T07:26:06.969Z,8.17
2018-08-24T07:28:10.921Z,12.20
2018-08-24T07:30:14.944Z,11.40
2018-08-24T07:32:18.985Z,6.97
2018-08-24T07:34:22.853Z,14.30
2018-08-24T07:36:26.878Z,8.40
2018-08-24T07:38:30.889Z,9.33
2018-08-24T07:40:34.828Z,9.53
2018-08-24T07:42:39.071Z,13.57
2018-08-24T07:44:48.419Z,10.90
2018-08-24T07:46:52.599Z,17.57
2018-08-24T07:48:56.840Z,10.23
2018-08-24T07:51:00.885Z,6.87
2018-08-24T07:53:04.930Z,8.90
2018-08-24T07:55:09.055Z,8.73
2018-08-24T07:57:13.089Z,7.20
2018-08-24T07:59:17.072Z,9.10
2018-08-24T08:01:21.307Z,11.43
2018-08-24T08:03:25.554Z,7.87
2018-08-24T08:05:29.982Z,8.70
2018-08-24T08:07:33.943Z,10.63
2018-08-24T08:09:38.055Z,6.07
2018-08-24T08:11:42.003Z,7.83
2018-08-24T08:13:46.005Z,8.73
2018-08-24T08:15:49.924Z,12.40
2018-08-24T08:17:53.961Z,15.17
2018-08-24T08:19:58.019Z,14.70
2018-08-24T08:22:02.163Z,11.30
2018-08-24T08:24:06.360Z,11.03
2018-08-24T08:26:10.272Z,11.60
2018-08-24T08:28:14.441Z,14.57
2018-08-24T08:30:18.729Z,8.40
2018-08-24T08:32:22.786Z,11.07
2018-08-24T08:34:26.763Z,17.70
2018-08-24T08:36:30.719Z,16.83
2018-08-24T08:38:34.879Z,12.37
2018-08-24T08:40:38.894Z,11.47
2018-08-24T08:42:42.884Z,10.73
2018-08-24T08:44:46.804Z,10.57
2018-08-24T08:46:50.860Z,9.30
2018-08-24T08:48:54.998Z,13.18
2018-08-24T08:50:59.264Z,6.43
2018-08-24T08:53:03.179Z,5.33
2018-08-24T08:55:07.216Z,6.33
2018-08-24T08:57:11.188Z,8.43
2018-08-24T08:59:16.280Z,7.40
2018-08-24T09:01:20.233Z,10.43
2018-08-24T09:03:24.247Z,16.53
2018-08-24T09:05:28.499Z,5.00
2018-08-24T09:07:32.665Z,14.00
2018-08-24T09:09:36.998Z,9.33
2018-08-24T09:11:41.017Z,8.40
2018-08-24T09:13:45.036Z,6.80
2018-08-24T09:15:49.370Z,10.93
2018-08-24T09:17:58.649Z,8.03
2018-08-24T09:21:09.688Z,9.90
2018-08-24T09:23:18.968Z,4.90
2018-08-24T09:26:30.171Z,14.93
2018-08-24T09:28:35.846Z,6.77
2018-08-24T09:30:43.510Z,13.00
2018-08-24T09:32:47.533Z,9.60
2018-08-24T09:34:51.517Z,7.13
2018-08-24T09:36:55.550Z,6.23
2018-08-24T09:38:59.765Z,9.30
2018-08-24T09:41:03.759Z,4.30
2018-08-24T09:43:12.894Z,9.63
2018-08-24T09:45:16.908Z,5.77
2018-08-24T09:47:26.061Z,5.60
2018-08-24T09:49:33.301Z,4.00
2018-08-24T09:51:37.438Z,5.63
2018-08-24T09:54:02.476Z,5.27
2018-08-24T09:56:06.654Z,9.33
2018-08-24T09:58:10.554Z,4.57
2018-08-24T10:00:14.561Z,6.17
2018-08-24T10:02:24.049Z,5.40
2018-08-24T10:04:33.080Z,5.17
2018-08-24T10:06:42.353Z,14.00
2018-08-24T10:08:49.539Z,5.63
2018-08-24T10:10:53.371Z,8.20
2018-08-24T10:12:57.554Z,3.80
2018-08-24T10:15:01.583Z,6.70
2018-08-24T10:17:05.583Z,5.30
2018-08-24T10:19:12.467Z,5.77
2018-08-24T10:21:16.582Z,7.87
2018-08-24T10:23:20.620Z,5.43
2018-08-24T10:25:24.797Z,7.83
2018-08-24T10:27:29.050Z,8.57
2018-08-24T10:29:33.060Z,10.40
2018-08-24T10:31:37.523Z,6.70
2018-08-24T10:33:41.560Z,6.60
2018-08-24T10:35:45.463Z,4.90
2018-08-24T10:37:49.397Z,6.08
2018-08-24T10:39:53.397Z,7.87
2018-08-24T10:41:57.419Z,6.03
2018-08-24T10:44:01.568Z,7.37
2018-08-24T10:46:05.641Z,8.00
2018-08-24T10:48:09.554Z,11.93
2018-08-24T10:50:13.422Z,4.60
2018-08-24T10:52:17.522Z,8.63
2018-08-24T10:54:21.620Z,6.70
2018-08-24T10:56:26.113Z,7.33
2018-08-24T10:58:30.112Z,8.83
2018-08-24T11:00:34.385Z,5.57
2018-08-24T11:02:38.420Z,5.83
2018-08-24T11:04:42.584Z,6.47
2018-08-24T11:06:46.571Z,7.43
2018-08-24T11:08:50.557Z,4.90
2018-08-24T11:10:54.555Z,7.30
2018-08-24T11:12:58.456Z,6.80
2018-08-24T11:15:04.069Z,6.47
2018-08-24T11:17:08.015Z,8.80
2018-08-24T11:19:11.999Z,8.60
2018-08-24T11:21:15.905Z,10.90
2018-08-24T11:23:21.139Z,7.73
2018-08-24T11:25:25.272Z,5.00
2018-08-24T11:27:29.197Z,7.03
2018-08-24T11:29:33.259Z,7.50
2018-08-24T11:31:37.601Z,6.07
2018-08-24T11:33:41.470Z,6.97
2018-08-24T11:35:45.499Z,4.10
2018-08-24T11:37:49.493Z,3.20
2018-08-24T11:39:53.568Z,4.87
2018-08-24T11:41:57.511Z,5.80
2018-08-24T11:44:01.654Z,9.50
2018-08-24T11:46:06.272Z,2.90
2018-08-24T11:48:10.180Z,5.83
2018-08-24T11:50:14.404Z,3.53
2018-08-24T11:52:19.125Z,3.20
2018-08-24T11:54:23.201Z,4.83
2018-08-24T11:56:27.181Z,3.57
2018-08-24T11:58:31.157Z,7.10
2018-08-24T12:00:35.578Z,4.97
2018-08-24T12:02:39.629Z,5.83
2018-08-24T12:04:43.544Z,4.53
2018-08-24T12:06:47.792Z,6.03
2018-08-24T12:08:51.772Z,4.10
2018-08-24T12:10:56.133Z,6.63
2018-08-24T12:13:00.031Z,5.87
2018-08-24T12:15:03.979Z,7.40
2018-08-24T12:17:09.469Z,8.60
2018-08-24T12:19:13.436Z,3.40
2018-08-24T12:21:17.734Z,10.43
2018-08-24T12:23:21.648Z,2.53
2018-08-24T12:25:25.575Z,6.20
2018-08-24T12:27:29.714Z,2.63
2018-08-24T12:29:33.875Z,4.73
2018-08-24T12:31:37.942Z,6.03
2018-08-24T12:33:41.905Z,5.90
2018-08-24T12:35:45.836Z,5.13
2018-08-24T12:37:49.793Z,2.43
2018-08-24T12:39:53.842Z,8.43
2018-08-24T12:41:57.866Z,2.43
2018-08-24T12:44:02.036Z,3.90
2018-08-24T12:46:06.966Z,3.23
2018-08-24T12:48:11.045Z,3.13
2018-08-24T12:50:14.991Z,4.57
2018-08-24T12:52:18.960Z,8.10
2018-08-24T12:54:23.082Z,4.43
2018-08-24T12:56:27.074Z,8.37
2018-08-24T12:58:31.185Z,3.30
2018-08-24T13:00:35.234Z,6.80
2018-08-24T13:02:39.256Z,6.33
2018-08-24T13:04:43.144Z,3.90
2018-08-24T13:06:47.278Z,2.50
2018-08-24T13:08:51.432Z,3.80
2018-08-24T13:10:55.492Z,9.60
2018-08-24T13:12:59.538Z,4.10
2018-08-24T13:15:03.960Z,10.80
2018-08-24T13:17:08.024Z,6.60
2018-08-24T13:19:11.920Z,4.00
2018-08-24T13:21:16.000Z,10.07
2018-08-24T13:23:20.096Z,4.80
2018-08-24T13:25:24.025Z,3.67
2018-08-24T13:27:28.047Z,3.80
2018-08-24T13:29:32.295Z,7.20
2018-08-24T13:31:36.575Z,6.30
2018-08-24T13:33:40.556Z,4.47
2018-08-24T13:35:44.698Z,3.73
2018-08-24T13:37:48.726Z,3.20
2018-08-24T13:39:52.893Z,3.43
2018-08-24T13:41:57.103Z,5.13
2018-08-24T13:44:01.238Z,5.47
2018-08-24T13:46:05.456Z,8.10
2018-08-24T13:48:09.340Z,9.93
2018-08-24T13:50:13.254Z,3.80
2018-08-24T13:52:17.071Z,8.60
2018-08-24T13:54:21.209Z,2.37
2018-08-24T13:56:25.554Z,3.77
2018-08-24T13:58:29.590Z,4.17
2018-08-24T14:00:33.628Z,3.50
2018-08-24T14:02:37.671Z,4.20
2018-08-24T14:04:41.966Z,2.30
2018-08-24T14:06:45.880Z,6.60
2018-08-24T14:08:49.791Z,6.20
2018-08-24T14:10:53.807Z,2.90
2018-08-24T14:12:57.754Z,4.40
2018-08-24T14:15:01.619Z,8.00
2018-08-24T14:17:05.677Z,6.43
2018-08-24T14:19:09.763Z,7.60
2018-08-24T14:21:13.989Z,4.40
2018-08-24T14:23:17.828Z,8.57
2018-08-24T14:25:21.844Z,2.60
2018-08-24T14:27:25.997Z,4.23
2018-08-24T14:29:29.881Z,2.40
2018-08-24T14:31:33.960Z,5.87
2018-08-24T14:33:38.052Z,4.53
2018-08-24T14:35:42.129Z,4.70
2018-08-24T14:37:46.167Z,8.03
2018-08-24T14:39:50.833Z,4.90
2018-08-24T14:41:54.893Z,3.67
2018-08-24T14:43:58.999Z,2.33
2018-08-24T14:46:02.936Z,6.70
2018-08-24T14:48:07.543Z,10.20
2018-08-24T14:50:11.708Z,3.33
2018-08-24T14:52:15.844Z,9.20
2018-08-24T14:54:19.818Z,2.73
2018-08-24T14:56:23.855Z,4.80
2018-08-24T14:58:27.752Z,4.63
2018-08-24T15:00:31.833Z,3.93
2018-08-24T15:02:35.838Z,5.23
2018-08-24T15:04:39.972Z,4.43
2018-08-24T15:06:44.095Z,2.80
2018-08-24T15:08:48.239Z,9.43
2018-08-24T15:10:52.297Z,3.60
2018-08-24T15:12:56.256Z,3.23
2018-08-24T15:15:00.268Z,3.47
2018-08-24T15:17:04.671Z,2.50
2018-08-24T15:19:08.591Z,3.73
2018-08-24T15:21:12.633Z,3.33
2018-08-24T15:23:16.548Z,14.03
2018-08-24T15:25:20.604Z,4.00
2018-08-24T15:27:24.517Z,3.13
2018-08-24T15:29:28.525Z,2.40
2018-08-24T15:31:32.456Z,2.30
2018-08-24T15:33:36.525Z,12.60
2018-08-24T15:35:40.537Z,3.73
2018-08-24T15:37:44.509Z,5.73
2018-08-24T15:39:48.638Z,6.37
2018-08-24T15:41:52.616Z,3.13
2018-08-24T15:43:56.571Z,2.20
2018-08-24T15:46:01.950Z,11.80
2018-08-24T15:48:06.084Z,3.73
2018-08-24T15:50:10.035Z,4.60
2018-08-24T15:52:14.030Z,5.40
2018-08-24T15:54:18.248Z,3.70
2018-08-24T15:56:22.359Z,5.50
2018-08-24T15:58:26.339Z,6.30
2018-08-24T16:00:30.175Z,7.50
2018-08-24T16:02:34.183Z,3.80
2018-08-24T16:04:38.374Z,4.00
2018-08-24T16:06:42.463Z,5.40
2018-08-24T16:08:46.731Z,3.13
2018-08-24T16:10:51.015Z,2.23
2018-08-24T16:12:55.187Z,3.63
2018-08-24T16:14:59.245Z,5.60
2018-08-24T16:17:03.441Z,4.00
2018-08-24T16:19:07.770Z,2.80
2018-08-24T16:21:11.730Z,5.30
2018-08-24T16:23:16.683Z,5.57
2018-08-24T16:25:20.805Z,3.23
2018-08-24T16:27:25.352Z,11.43
2018-08-24T16:29:29.410Z,4.47
2018-08-24T16:31:33.573Z,5.20
2018-08-24T16:33:37.514Z,3.23
2018-08-24T16:35:41.682Z,13.90
2018-08-24T16:37:45.848Z,6.43
2018-08-24T16:39:49.909Z,4.33
2018-08-24T16:41:53.978Z,3.67
2018-08-24T16:43:57.984Z,6.83
2018-08-24T16:46:02.077Z,4.97
2018-08-24T16:48:06.112Z,3.67
2018-08-24T16:50:10.211Z,5.05
2018-08-24T16:52:14.344Z,3.80
2018-08-24T16:54:18.317Z,3.50
2018-08-24T16:56:22.227Z,4.25
2018-08-24T16:58:26.299Z,6.57
2018-08-24T17:00:30.509Z,4.90
2018-08-24T17:02:34.519Z,12.40
2018-08-24T17:04:38.568Z,5.37
2018-08-24T17:06:42.608Z,4.83
2018-08-24T17:08:46.808Z,8.10
2018-08-24T17:10:51.006Z,5.03
2018-08-24T17:12:55.095Z,4.77
2018-08-24T17:14:59.058Z,2.40
2018-08-24T17:17:03.130Z,6.33
2018-08-24T17:19:07.041Z,3.47
2018-08-24T17:21:10.860Z,2.60
2018-08-24T17:23:15.228Z,4.00
2018-08-24T17:25:19.458Z,10.80
2018-08-24T17:27:23.530Z,3.30
2018-08-24T17:29:27.673Z,5.70
2018-08-24T17:31:31.720Z,6.27
2018-08-24T17:33:35.721Z,11.83
2018-08-24T17:35:39.729Z,10.33
2018-08-24T17:37:43.664Z,7.00
2018-08-24T17:39:47.935Z,5.90
2018-08-24T17:41:52.033Z,4.30
2018-08-24T17:43:55.871Z,5.20
2018-08-24T17:45:59.917Z,2.80
2018-08-24T17:48:03.921Z,5.00
2018-08-24T17:50:08.187Z,6.63
2018-08-24T17:52:12.574Z,6.17
2018-08-24T17:54:16.660Z,6.57
2018-08-24T17:56:20.805Z,6.20
2018-08-24T17:58:24.773Z,9.03
2018-08-24T18:00:28.741Z,3.80
2018-08-24T18:02:32.690Z,4.20
2018-08-24T18:04:37.064Z,4.87
2018-08-24T18:06:41.491Z,3.73
2018-08-24T18:08:45.509Z,3.27
2018-08-24T18:10:49.687Z,7.83
2018-08-24T18:12:53.683Z,5.47
2018-08-24T18:14:57.742Z,4.37
2018-08-24T18:17:01.908Z,12.97
2018-08-24T18:19:06.265Z,5.60
2018-08-24T18:21:10.398Z,6.83
2018-08-24T18:23:14.528Z,12.00
2018-08-24T18:25:18.554Z,8.63
2018-08-24T18:27:22.608Z,4.70
2018-08-24T18:29:26.532Z,4.70
2018-08-24T18:31:30.432Z,3.90
2018-08-24T18:33:34.440Z,7.70
2018-08-24T18:35:38.469Z,4.13
2018-08-24T18:37:42.480Z,5.27
2018-08-24T18:39:46.463Z,6.47
2018-08-24T18:41:50.525Z,7.53
2018-08-24T18:43:54.365Z,7.90
2018-08-24T18:45:58.368Z,3.43
2018-08-24T18:48:02.372Z,4.60
2018-08-24T18:50:06.502Z,5.00
2018-08-24T18:52:10.455Z,4.30
2018-08-24T18:54:14.468Z,2.60
2018-08-24T18:56:18.515Z,4.17
2018-08-24T18:58:22.783Z,6.63
2018-08-24T19:00:26.885Z,9.90
2018-08-24T19:02:30.815Z,6.17
2018-08-24T19:04:34.796Z,4.37
2018-08-24T19:06:38.907Z,9.83
2018-08-24T19:08:43.049Z,12.20
2018-08-24T19:10:52.303Z,2.67
2018-08-24T19:12:56.588Z,5.37
2018-08-24T19:15:00.582Z,4.07
2018-08-24T19:17:04.528Z,8.33
2018-08-24T19:19:13.933Z,6.20
2018-08-24T19:21:23.096Z,6.67
2018-08-24T19:23:27.282Z,8.63
2018-08-24T19:25:31.397Z,6.03
2018-08-24T19:27:40.558Z,9.00
2018-08-24T19:29:49.801Z,7.70
2018-08-24T19:31:53.807Z,8.33
2018-08-24T19:33:57.721Z,5.13
2018-08-24T19:36:01.743Z,3.57
2018-08-24T19:38:05.919Z,9.17
2018-08-24T19:40:15.168Z,4.70
2018-08-24T19:42:25.496Z,4.77
2018-08-24T19:44:29.759Z,6.00
2018-08-24T19:46:33.857Z,4.73
2018-08-24T19:48:43.243Z,4.53
2018-08-24T19:50:47.688Z,2.73
2018-08-24T19:52:51.677Z,9.30
2018-08-24T19:54:55.732Z,7.40
2018-08-24T19:57:04.044Z,13.00
2018-08-24T19:59:09.658Z,5.30
2018-08-24T20:01:13.879Z,1.80
2018-08-24T20:03:17.877Z,7.03
2018-08-24T20:05:21.990Z,3.07
2018-08-24T20:07:31.262Z,2.13
2018-08-24T20:09:40.430Z,3.63
2018-08-24T20:11:47.518Z,5.00
2018-08-24T20:13:51.745Z,3.93
2018-08-24T20:16:01.005Z,1.97
2018-08-24T20:18:05.276Z,5.33
2018-08-24T20:20:08.985Z,3.90
2018-08-24T20:22:13.084Z,14.10
2018-08-24T20:24:17.178Z,3.57
2018-08-24T20:26:21.171Z,3.47
2018-08-24T20:28:25.197Z,4.97
2018-08-24T20:30:29.427Z,9.33
2018-08-24T20:32:33.577Z,7.23
2018-08-24T20:34:37.613Z,5.63
2018-08-24T20:36:42.039Z,6.17
2018-08-24T20:38:46.343Z,9.73
2018-08-24T20:40:50.864Z,3.73
2018-08-24T20:42:54.835Z,4.20
2018-08-24T20:44:58.824Z,8.77
2018-08-24T20:47:02.677Z,9.58
2018-08-24T20:49:06.539Z,3.30
2018-08-24T20:51:10.441Z,2.47
2018-08-24T20:53:14.546Z,4.53
2018-08-24T20:55:18.639Z,4.37
2018-08-24T20:57:22.713Z,4.43
2018-08-24T20:59:26.876Z,5.50
2018-08-24T21:01:30.808Z,8.57
2018-08-24T21:03:42.663Z,5.37
2018-08-24T21:05:48.247Z,2.83
2018-08-24T21:07:56.543Z,6.57
2018-08-24T21:10:03.587Z,3.90
2018-08-24T21:12:12.696Z,5.10
2018-08-24T21:14:19.627Z,3.43
2018-08-24T21:16:24.288Z,4.27
2018-08-24T21:18:30.774Z,7.50
2018-08-24T21:20:34.693Z,2.90
2018-08-24T21:22:39.486Z,4.93
2018-08-24T21:24:43.801Z,3.93
2018-08-24T21:26:48.596Z,2.67
2018-08-24T21:28:52.878Z,5.23
2018-08-24T21:30:57.319Z,2.33
2018-08-24T21:33:02.687Z,2.43
2018-08-24T21:35:06.824Z,10.37
2018-08-24T21:37:11.116Z,6.70
2018-08-24T21:39:15.596Z,6.90
2018-08-24T21:41:19.784Z,8.57
2018-08-24T21:43:24.045Z,3.00
2018-08-24T21:45:28.194Z,2.30
2018-08-24T21:47:32.583Z,4.40
2018-08-24T21:49:37.264Z,10.80
2018-08-24T21:51:41.691Z,4.57
2018-08-24T21:53:45.850Z,1.93
2018-08-24T21:55:50.909Z,2.80
2018-08-24T21:57:55.683Z,2.87
2018-08-24T21:59:59.911Z,3.27
2018-08-24T22:02:04.088Z,5.53
2018-08-24T22:04:08.347Z,5.75
2018-08-24T22:06:12.592Z,3.00
2018-08-24T22:08:16.788Z,3.97
2018-08-24T22:10:21.189Z,3.37
2018-08-24T22:12:26.275Z,3.00
2018-08-24T22:14:31.030Z,4.80
2018-08-24T22:16:35.111Z,5.00
2018-08-24T22:18:39.473Z,11.23
2018-08-24T22:20:45.094Z,4.37
2018-08-24T22:22:49.200Z,2.23
2018-08-24T22:24:53.296Z,5.37
2018-08-24T22:26:57.161Z,1.87
2018-08-24T22:29:01.768Z,4.17
2018-08-24T22:31:07.314Z,5.47
2018-08-24T22:33:11.508Z,4.80
2018-08-24T22:35:15.705Z,4.50
2018-08-24T22:37:19.616Z,2.83
2018-08-24T22:39:23.680Z,8.70
2018-08-24T22:41:27.777Z,4.80
2018-08-24T22:43:40.611Z,2.77
2018-08-24T22:45:44.971Z,3.90
2018-08-24T22:47:49.170Z,5.70
2018-08-24T22:49:54.392Z,4.00
2018-08-24T22:51:58.605Z,7.13
2018-08-24T22:54:02.926Z,7.40
2018-08-24T22:56:07.364Z,4.37
2018-08-24T22:58:11.537Z,3.10
2018-08-24T23:00:15.582Z,3.00
2018-08-24T23:02:19.797Z,2.83
2018-08-24T23:04:24.404Z,5.47
2018-08-24T23:06:28.736Z,3.03
2018-08-24T23:08:34.339Z,4.37
2018-08-24T23:10:39.007Z,3.30
2018-08-24T23:12:44.381Z,2.60
2018-08-24T23:14:48.346Z,5.87
2018-08-24T23:16:53.243Z,5.83
2018-08-24T23:18:58.469Z,6.57
2018-08-24T23:21:02.306Z,12.33
2018-08-24T23:23:06.467Z,4.63
2018-08-24T23:25:11.646Z,7.40
2018-08-24T23:27:16.441Z,3.53
2018-08-24T23:29:20.545Z,4.80
2018-08-24T23:31:24.682Z,2.67
2018-08-24T23:33:28.891Z,3.93
2018-08-24T23:35:32.992Z,6.10
2018-08-24T23:37:37.027Z,3.80
2018-08-24T23:39:41.572Z,9.20
2018-08-24T23:41:45.448Z,6.53
2018-08-24T23:43:49.575Z,6.23
2018-08-24T23:45:53.623Z,3.07
2018-08-24T23:47:57.937Z,3.60
2018-08-24T23:50:02.458Z,2.50
2018-08-24T23:52:06.492Z,6.23
2018-08-24T23:54:13.353Z,3.00
2018-08-24T23:56:18.420Z,5.70
2018-08-24T23:58:22.846Z,5.20
